createdAt,value
2019-02-03T00:00:10.175Z,61.58
2019-02-03T00:01:20.691Z,63.85
2019-02-03T00:02:27.369Z,59.40
2019-02-03T00:03:35.562Z,61.40
2019-02-03T00:04:42.269Z,60.85
2019-02-03T00:05:49.058Z,67.72
2019-02-03T00:07:02.926Z,63.45
2019-02-03T00:08:04.820Z,61.58
2019-02-03T00:09:20.473Z,58.87
2019-02-03T00:10:27.301Z,62.53
2019-02-03T00:11:34.684Z,62.38
2019-02-03T00:12:41.391Z,60.52
2019-02-03T00:13:48.529Z,61.80
2019-02-03T00:14:55.344Z,60.15
2019-02-03T00:16:02.091Z,65.55
2019-02-03T00:17:08.856Z,64.20
2019-02-03T00:18:15.817Z,65.40
2019-02-03T00:19:22.974Z,62.90
2019-02-03T00:20:30.362Z,64.05
2019-02-03T00:21:37.334Z,62.08
2019-02-03T00:22:44.079Z,64.47
2019-02-03T00:23:51.161Z,65.15
2019-02-03T00:24:58.156Z,61.25
2019-02-03T00:26:05.828Z,59.85
2019-02-03T00:27:12.826Z,59.53
2019-02-03T00:28:19.551Z,60.25
2019-02-03T00:29:26.984Z,59.70
2019-02-03T00:30:34.027Z,57.93
2019-02-03T00:31:40.755Z,60.10
2019-02-03T00:32:47.591Z,61.63
2019-02-03T00:33:54.683Z,58.20
2019-02-03T00:35:01.429Z,59.20
2019-02-03T00:36:08.500Z,58.05
2019-02-03T00:37:17.510Z,58.50
2019-02-03T00:38:24.562Z,59.27
2019-02-03T00:39:32.587Z,57.88
2019-02-03T00:40:39.750Z,59.40
2019-02-03T00:41:47.342Z,57.27
2019-02-03T00:42:55.098Z,59.20
2019-02-03T00:44:02.260Z,56.20
2019-02-03T00:45:11.488Z,59.53
2019-02-03T00:46:18.992Z,57.43
2019-02-03T00:47:25.735Z,57.35
2019-02-03T00:48:32.460Z,56.58
2019-02-03T00:49:39.484Z,54.48
2019-02-03T00:50:46.822Z,57.17
2019-02-03T00:51:53.762Z,54.42
2019-02-03T00:53:00.442Z,57.75
2019-02-03T00:54:07.735Z,57.13
2019-02-03T00:55:16.695Z,59.18
2019-02-03T00:56:23.850Z,53.98
2019-02-03T00:57:32.410Z,59.05
2019-02-03T00:58:39.334Z,55.50
2019-02-03T00:59:46.290Z,58.28
2019-02-03T01:00:53.060Z,62.30
2019-02-03T01:02:00.242Z,56.50
2019-02-03T01:03:07.172Z,61.05
2019-02-03T01:04:13.824Z,59.33
2019-02-03T01:05:20.655Z,59.55
2019-02-03T01:06:27.527Z,57.80
2019-02-03T01:07:34.337Z,64.37
2019-02-03T01:08:40.998Z,63.23
2019-02-03T01:09:47.679Z,59.35
2019-02-03T01:10:54.708Z,61.37
2019-02-03T01:12:01.440Z,61.45
2019-02-03T01:13:08.743Z,66.53
2019-02-03T01:14:15.875Z,59.60
2019-02-03T01:15:22.886Z,63.42
2019-02-03T01:16:29.563Z,62.93
2019-02-03T01:17:36.262Z,60.80
2019-02-03T01:18:43.333Z,59.20
2019-02-03T01:19:50.056Z,61.40
2019-02-03T01:20:56.919Z,59.60
2019-02-03T01:22:03.591Z,60.78
2019-02-03T01:23:10.249Z,63.00
2019-02-03T01:24:16.918Z,59.80
2019-02-03T01:25:23.955Z,58.83
2019-02-03T01:26:31.245Z,59.80
2019-02-03T01:27:37.941Z,59.75
2019-02-03T01:28:44.650Z,58.00
2019-02-03T01:29:51.754Z,59.95
2019-02-03T01:30:58.463Z,58.28
2019-02-03T01:32:05.502Z,57.30
2019-02-03T01:33:12.190Z,58.05
2019-02-03T01:34:18.873Z,60.10
2019-02-03T01:35:26.051Z,58.17
2019-02-03T01:36:33.141Z,58.60
2019-02-03T01:37:40.506Z,56.48
2019-02-03T01:38:49.312Z,58.95
2019-02-03T01:39:56.365Z,56.80
2019-02-03T01:41:03.394Z,57.45
2019-02-03T01:42:10.244Z,56.98
2019-02-03T01:43:17.172Z,61.00
2019-02-03T01:44:23.848Z,56.30
2019-02-03T01:45:30.555Z,58.02
2019-02-03T01:46:37.374Z,58.15
2019-02-03T01:47:44.204Z,60.15
2019-02-03T01:48:50.925Z,62.23
2019-02-03T01:49:57.659Z,59.45
2019-02-03T01:51:04.513Z,59.73
2019-02-03T01:52:11.184Z,56.18
2019-02-03T01:53:17.935Z,61.20
2019-02-03T01:54:26.367Z,55.20
2019-02-03T01:55:33.119Z,60.83
2019-02-03T01:56:39.773Z,59.65
2019-02-03T01:57:46.501Z,56.58
2019-02-03T01:58:53.205Z,58.75
2019-02-03T01:59:59.944Z,54.48
2019-02-03T02:01:07.399Z,59.25
2019-02-03T02:02:14.111Z,57.35
2019-02-03T02:03:20.840Z,55.80
2019-02-03T02:04:27.516Z,55.52
2019-02-03T02:05:35.000Z,55.65
2019-02-03T02:06:41.738Z,57.03
2019-02-03T02:07:51.571Z,58.02
2019-02-03T02:08:58.271Z,57.17
2019-02-03T02:10:06.466Z,56.42
2019-02-03T02:11:13.408Z,54.33
2019-02-03T02:12:20.180Z,58.25
2019-02-03T02:13:26.856Z,58.65
2019-02-03T02:14:33.557Z,58.85
2019-02-03T02:15:40.297Z,58.45
2019-02-03T02:16:46.990Z,56.73
2019-02-03T02:17:54.329Z,55.95
2019-02-03T02:19:01.313Z,56.08
2019-02-03T02:20:11.857Z,55.43
2019-02-03T02:21:18.686Z,56.20
2019-02-03T02:22:25.351Z,55.38
2019-02-03T02:23:32.384Z,54.70
2019-02-03T02:24:39.205Z,54.15
2019-02-03T02:25:45.957Z,56.35
2019-02-03T02:26:52.645Z,53.42
2019-02-03T02:28:00.059Z,59.20
2019-02-03T02:29:07.164Z,57.70
2019-02-03T02:30:17.157Z,56.30
2019-02-03T02:31:23.847Z,51.90
2019-02-03T02:32:30.596Z,55.65
2019-02-03T02:33:37.649Z,53.40
2019-02-03T02:34:45.137Z,52.23
2019-02-03T02:35:52.343Z,51.70
2019-02-03T02:36:59.403Z,53.78
2019-02-03T02:38:07.487Z,56.33
2019-02-03T02:39:14.565Z,54.00
2019-02-03T02:40:25.456Z,55.17
2019-02-03T02:41:32.866Z,56.65
2019-02-03T02:42:39.887Z,53.70
2019-02-03T02:43:46.610Z,55.38
2019-02-03T02:44:53.568Z,55.10
2019-02-03T02:46:00.724Z,51.25
2019-02-03T02:47:07.436Z,52.93
2019-02-03T02:48:14.126Z,52.95
2019-02-03T02:49:20.788Z,50.75
2019-02-03T02:50:37.320Z,52.78
2019-02-03T02:51:43.991Z,52.20
2019-02-03T02:52:50.878Z,51.92
2019-02-03T02:53:58.954Z,52.35
2019-02-03T02:55:06.539Z,51.13
2019-02-03T02:56:13.405Z,50.52
2019-02-03T02:57:20.095Z,52.33
2019-02-03T02:58:26.784Z,52.20
2019-02-03T02:59:33.446Z,49.60
2019-02-03T03:00:40.141Z,49.15
2019-02-03T03:01:47.004Z,52.58
2019-02-03T03:02:53.721Z,47.35
2019-02-03T03:04:00.388Z,50.08
2019-02-03T03:05:09.049Z,49.40
2019-02-03T03:06:15.818Z,48.55
2019-02-03T03:07:22.503Z,48.60
2019-02-03T03:08:29.693Z,46.88
2019-02-03T03:09:36.529Z,51.63
2019-02-03T03:10:43.193Z,50.12
2019-02-03T03:11:50.247Z,48.35
2019-02-03T03:12:56.904Z,50.85
2019-02-03T03:14:03.932Z,49.33
2019-02-03T03:15:12.725Z,50.98
2019-02-03T03:16:19.422Z,49.03
2019-02-03T03:17:26.569Z,48.15
2019-02-03T03:18:33.562Z,48.80
2019-02-03T03:19:40.775Z,46.37
2019-02-03T03:20:47.613Z,48.73
2019-02-03T03:21:54.319Z,48.90
2019-02-03T03:23:00.984Z,48.15
2019-02-03T03:24:07.756Z,47.08
2019-02-03T03:25:16.947Z,46.48
2019-02-03T03:26:23.637Z,46.28
2019-02-03T03:27:30.305Z,46.10
2019-02-03T03:28:37.041Z,45.10
2019-02-03T03:29:43.717Z,46.85
2019-02-03T03:30:50.479Z,44.18
2019-02-03T03:31:57.282Z,43.73
2019-02-03T03:33:04.719Z,44.23
2019-02-03T03:34:11.427Z,44.10
2019-02-03T03:35:18.150Z,42.27
2019-02-03T03:36:25.184Z,42.85
2019-02-03T03:37:32.010Z,45.65
2019-02-03T03:38:39.035Z,44.10
2019-02-03T03:39:46.447Z,42.65
2019-02-03T03:40:53.733Z,43.17
2019-02-03T03:42:00.409Z,42.95
2019-02-03T03:43:07.113Z,43.20
2019-02-03T03:44:14.181Z,43.28
2019-02-03T03:45:21.010Z,41.55
2019-02-03T03:46:28.403Z,42.58
2019-02-03T03:47:35.135Z,43.30
2019-02-03T03:48:41.801Z,38.35
2019-02-03T03:49:48.530Z,40.60
2019-02-03T03:50:55.189Z,41.08
2019-02-03T03:52:02.234Z,39.60
2019-02-03T03:53:08.981Z,39.67
2019-02-03T03:54:15.746Z,37.08
2019-02-03T03:55:22.396Z,38.00
2019-02-03T03:56:29.334Z,36.85
2019-02-03T03:57:36.037Z,36.95
2019-02-03T03:58:42.711Z,37.13
2019-02-03T03:59:49.407Z,36.33
2019-02-03T04:00:56.093Z,36.30
2019-02-03T04:02:02.789Z,37.25
2019-02-03T04:03:09.578Z,36.10
2019-02-03T04:04:16.576Z,34.63
2019-02-03T04:05:24.309Z,35.55
2019-02-03T04:06:31.300Z,34.33
2019-02-03T04:07:38.074Z,34.05
2019-02-03T04:08:45.807Z,35.28
2019-02-03T04:09:52.929Z,32.70
2019-02-03T04:10:59.597Z,31.97
2019-02-03T04:12:06.282Z,34.15
2019-02-03T04:13:13.041Z,32.45
2019-02-03T04:14:20.025Z,30.37
2019-02-03T04:15:27.270Z,33.02
2019-02-03T04:16:34.048Z,31.42
2019-02-03T04:17:40.794Z,29.90
2019-02-03T04:18:47.464Z,31.42
2019-02-03T04:19:54.194Z,29.23
2019-02-03T04:21:00.910Z,30.80
2019-02-03T04:22:07.982Z,32.25
2019-02-03T04:23:14.737Z,29.35
2019-02-03T04:24:22.012Z,30.05
2019-02-03T04:25:29.505Z,28.90
2019-02-03T04:26:37.013Z,28.25
2019-02-03T04:27:43.965Z,26.52
2019-02-03T04:28:51.430Z,27.40
2019-02-03T04:29:58.403Z,27.32
2019-02-03T04:31:05.085Z,28.35
2019-02-03T04:32:12.173Z,26.52
2019-02-03T04:33:19.257Z,28.70
2019-02-03T04:34:25.928Z,24.02
2019-02-03T04:35:32.643Z,28.90
2019-02-03T04:36:39.949Z,24.65
2019-02-03T04:37:46.826Z,23.62
2019-02-03T04:38:58.115Z,25.00
2019-02-03T04:40:01.888Z,23.55
2019-02-03T04:41:08.569Z,23.20
2019-02-03T04:42:15.274Z,23.35
2019-02-03T04:43:22.326Z,21.68
2019-02-03T04:44:29.017Z,21.95
2019-02-03T04:45:36.061Z,21.20
2019-02-03T04:46:43.245Z,20.80
2019-02-03T04:47:50.408Z,21.52
2019-02-03T04:48:57.127Z,21.10
2019-02-03T04:50:03.846Z,20.88
2019-02-03T04:51:10.502Z,20.32
2019-02-03T04:52:17.211Z,19.95
2019-02-03T04:53:25.387Z,18.23
2019-02-03T04:54:32.067Z,18.80
2019-02-03T04:55:38.741Z,18.62
2019-02-03T04:56:45.826Z,18.10
2019-02-03T04:57:52.782Z,17.55
2019-02-03T04:58:59.923Z,18.65
2019-02-03T05:00:08.928Z,18.52
2019-02-03T05:01:15.975Z,16.35
2019-02-03T05:02:22.685Z,18.57
2019-02-03T05:03:29.742Z,15.53
2019-02-03T05:04:36.440Z,16.40
2019-02-03T05:05:43.490Z,16.82
2019-02-03T05:06:50.154Z,16.48
2019-02-03T05:07:56.831Z,15.35
2019-02-03T05:09:11.108Z,16.82
2019-02-03T05:10:15.295Z,16.80
2019-02-03T05:11:22.702Z,15.45
2019-02-03T05:12:29.469Z,15.30
2019-02-03T05:13:36.135Z,14.75
2019-02-03T05:14:42.833Z,13.40
2019-02-03T05:15:49.507Z,15.18
2019-02-03T05:16:56.619Z,16.12
2019-02-03T05:18:03.679Z,15.80
2019-02-03T05:19:11.110Z,15.43
2019-02-03T05:20:20.758Z,14.40
2019-02-03T05:21:27.817Z,14.90
2019-02-03T05:22:34.810Z,14.50
2019-02-03T05:23:42.142Z,16.25
2019-02-03T05:24:49.659Z,13.70
2019-02-03T05:25:57.737Z,13.72
2019-02-03T05:27:04.845Z,16.10
2019-02-03T05:28:11.868Z,13.80
2019-02-03T05:29:18.871Z,13.40
2019-02-03T05:30:29.345Z,14.28
2019-02-03T05:31:36.702Z,14.35
2019-02-03T05:32:43.412Z,13.30
2019-02-03T05:33:50.457Z,15.03
2019-02-03T05:34:57.436Z,16.50
2019-02-03T05:36:04.403Z,13.90
2019-02-03T05:37:11.425Z,14.80
2019-02-03T05:38:18.116Z,14.18
2019-02-03T05:39:25.637Z,12.82
2019-02-03T05:40:32.780Z,14.25
2019-02-03T05:41:39.485Z,12.65
2019-02-03T05:42:46.710Z,16.02
2019-02-03T05:43:53.441Z,14.05
2019-02-03T05:45:00.361Z,13.50
2019-02-03T05:46:07.219Z,12.53
2019-02-03T05:47:14.744Z,13.88
2019-02-03T05:48:21.441Z,13.00
2019-02-03T05:49:28.167Z,11.95
2019-02-03T05:50:34.872Z,13.35
2019-02-03T05:51:41.652Z,13.43
2019-02-03T05:52:48.337Z,13.88
2019-02-03T05:53:55.399Z,12.75
2019-02-03T05:55:02.688Z,13.15
2019-02-03T05:56:09.473Z,13.22
2019-02-03T05:57:16.465Z,13.70
2019-02-03T05:58:23.534Z,14.25
2019-02-03T05:59:30.256Z,12.88
2019-02-03T06:00:39.623Z,14.20
2019-02-03T06:01:46.736Z,11.95
2019-02-03T06:02:53.454Z,14.18
2019-02-03T06:04:00.587Z,13.50
2019-02-03T06:05:08.470Z,14.95
2019-02-03T06:06:15.542Z,13.20
2019-02-03T06:07:22.600Z,13.35
2019-02-03T06:08:29.274Z,13.13
2019-02-03T06:09:36.945Z,12.15
2019-02-03T06:10:43.846Z,12.33
2019-02-03T06:11:50.499Z,13.08
2019-02-03T06:12:57.385Z,12.53
2019-02-03T06:14:05.312Z,12.20
2019-02-03T06:15:12.718Z,13.10
2019-02-03T06:16:19.414Z,12.75
2019-02-03T06:17:26.530Z,11.70
2019-02-03T06:18:33.609Z,10.93
2019-02-03T06:19:40.658Z,12.07
2019-02-03T06:20:48.552Z,12.53
2019-02-03T06:21:55.490Z,12.25
2019-02-03T06:23:03.021Z,11.48
2019-02-03T06:24:10.368Z,13.70
2019-02-03T06:25:18.308Z,12.37
2019-02-03T06:26:24.982Z,12.13
2019-02-03T06:27:32.356Z,12.07
2019-02-03T06:28:39.067Z,11.78
2019-02-03T06:29:45.769Z,10.93
2019-02-03T06:31:14.445Z,12.68
2019-02-03T06:32:21.515Z,11.97
2019-02-03T06:33:29.043Z,11.50
2019-02-03T06:34:36.126Z,11.78
2019-02-03T06:35:43.107Z,12.60
2019-02-03T06:36:51.875Z,11.48
2019-02-03T06:37:58.253Z,11.75
2019-02-03T06:39:06.592Z,10.03
2019-02-03T06:40:13.678Z,11.80
2019-02-03T06:41:20.615Z,10.93
2019-02-03T06:42:27.584Z,11.08
2019-02-03T06:43:34.757Z,11.30
2019-02-03T06:44:41.858Z,10.50
2019-02-03T06:46:19.820Z,10.65
2019-02-03T06:47:27.425Z,12.30
2019-02-03T06:48:34.375Z,11.33
2019-02-03T06:49:41.757Z,10.48
2019-02-03T06:50:48.827Z,11.55
2019-02-03T06:51:55.887Z,11.08
2019-02-03T06:53:02.882Z,11.25
2019-02-03T06:54:09.981Z,12.23
2019-02-03T06:55:16.845Z,11.38
2019-02-03T06:56:23.588Z,11.28
2019-02-03T06:57:30.324Z,10.32
2019-02-03T06:58:36.999Z,11.70
2019-02-03T06:59:51.062Z,11.40
2019-02-03T07:00:52.365Z,11.95
2019-02-03T07:01:59.155Z,12.37
2019-02-03T07:03:06.426Z,12.45
2019-02-03T07:04:14.777Z,12.33
2019-02-03T07:05:22.051Z,12.78
2019-02-03T07:06:29.094Z,12.13
2019-02-03T07:07:36.304Z,12.37
2019-02-03T07:08:43.285Z,10.75
2019-02-03T07:10:00.004Z,10.78
2019-02-03T07:10:59.036Z,12.63
2019-02-03T07:12:07.081Z,12.50
2019-02-03T07:13:14.667Z,13.25
2019-02-03T07:14:21.742Z,13.35
2019-02-03T07:15:28.501Z,13.43
2019-02-03T07:16:41.048Z,12.05
2019-02-03T07:17:43.903Z,13.88
2019-02-03T07:18:51.017Z,12.55
2019-02-03T07:19:57.959Z,11.90
2019-02-03T07:21:05.440Z,12.82
2019-02-03T07:22:12.423Z,11.63
2019-02-03T07:23:20.285Z,13.45
2019-02-03T07:24:27.442Z,12.98
2019-02-03T07:25:34.199Z,12.45
2019-02-03T07:26:40.958Z,13.03
2019-02-03T07:27:47.930Z,13.08
2019-02-03T07:28:54.572Z,12.88
2019-02-03T07:30:01.255Z,14.53
2019-02-03T07:31:08.081Z,13.28
2019-02-03T07:32:15.747Z,13.35
2019-02-03T07:33:22.432Z,13.45
2019-02-03T07:34:29.113Z,13.72
2019-02-03T07:35:35.863Z,13.32
2019-02-03T07:36:42.694Z,14.45
2019-02-03T07:37:49.544Z,12.73
2019-02-03T07:38:56.225Z,13.93
2019-02-03T07:40:12.218Z,14.65
2019-02-03T07:41:11.303Z,11.40
2019-02-03T07:42:18.071Z,15.18
2019-02-03T07:43:25.511Z,12.40
2019-02-03T07:44:32.558Z,14.13
2019-02-03T07:45:39.671Z,13.93
2019-02-03T07:46:47.799Z,11.93
2019-02-03T07:47:54.659Z,14.90
2019-02-03T07:49:01.372Z,14.47
2019-02-03T07:50:08.565Z,12.93
2019-02-03T07:51:15.357Z,13.62
2019-02-03T07:52:22.131Z,12.78
2019-02-03T07:53:28.847Z,13.93
2019-02-03T07:54:35.839Z,13.15
2019-02-03T07:55:42.951Z,12.55
2019-02-03T07:56:50.007Z,12.88
2019-02-03T07:57:56.983Z,13.95
2019-02-03T07:59:03.711Z,13.48
2019-02-03T08:00:11.678Z,12.90
2019-02-03T08:01:18.746Z,12.53
2019-02-03T08:02:25.673Z,12.63
2019-02-03T08:03:32.780Z,11.85
2019-02-03T08:04:39.728Z,12.15
2019-02-03T08:05:47.442Z,11.25
2019-02-03T08:06:54.147Z,12.58
2019-02-03T08:08:00.803Z,12.47
2019-02-03T08:09:11.758Z,12.10
2019-02-03T08:10:26.343Z,12.40
2019-02-03T08:11:28.127Z,11.45
2019-02-03T08:12:35.266Z,11.95
2019-02-03T08:13:42.112Z,10.65
2019-02-03T08:14:48.825Z,10.68
2019-02-03T08:15:55.530Z,10.35
2019-02-03T08:17:02.231Z,10.40
2019-02-03T08:18:09.346Z,10.93
2019-02-03T08:19:16.088Z,10.55
2019-02-03T08:20:23.014Z,11.22
2019-02-03T08:21:30.347Z,10.45
2019-02-03T08:22:37.219Z,9.73
2019-02-03T08:23:44.700Z,11.53
2019-02-03T08:24:51.798Z,11.10
2019-02-03T08:25:58.444Z,9.50
2019-02-03T08:27:05.591Z,10.78
2019-02-03T08:28:12.298Z,10.72
2019-02-03T08:29:19.450Z,9.48
2019-02-03T08:30:26.934Z,9.13
2019-02-03T08:31:33.689Z,10.15
2019-02-03T08:32:40.450Z,9.85
2019-02-03T08:33:47.137Z,8.50
2019-02-03T08:34:53.891Z,9.50
2019-02-03T08:36:00.976Z,10.20
2019-02-03T08:37:07.833Z,8.60
2019-02-03T08:38:14.619Z,8.88
2019-02-03T08:39:21.281Z,8.10
2019-02-03T08:40:36.787Z,8.10
2019-02-03T08:41:36.531Z,9.23
2019-02-03T08:42:43.494Z,8.50
2019-02-03T08:43:50.418Z,9.35
2019-02-03T08:44:58.136Z,8.30
2019-02-03T08:46:05.303Z,8.90
2019-02-03T08:47:12.003Z,9.00
2019-02-03T08:48:18.693Z,8.38
2019-02-03T08:49:25.777Z,8.25
2019-02-03T08:50:32.458Z,7.75
2019-02-03T08:51:39.162Z,8.35
2019-02-03T08:52:46.062Z,8.15
2019-02-03T08:53:53.225Z,9.00
2019-02-03T08:55:00.309Z,7.97
2019-02-03T08:56:07.435Z,8.23
2019-02-03T08:57:14.161Z,7.97
2019-02-03T08:58:21.248Z,7.58
2019-02-03T08:59:27.921Z,7.53
2019-02-03T09:00:53.739Z,6.42
2019-02-03T09:02:01.109Z,7.85
2019-02-03T09:03:08.823Z,7.35
2019-02-03T09:04:15.879Z,6.28
2019-02-03T09:05:22.588Z,6.50
2019-02-03T09:06:29.671Z,6.58
2019-02-03T09:07:36.746Z,5.95
2019-02-03T09:08:43.822Z,5.75
2019-02-03T09:09:51.555Z,6.65
2019-02-03T09:10:59.005Z,6.42
2019-02-03T09:12:06.039Z,7.03
2019-02-03T09:13:13.035Z,6.17
2019-02-03T09:14:19.813Z,4.97
2019-02-03T09:15:27.727Z,5.60
2019-02-03T09:16:34.774Z,6.55
2019-02-03T09:17:41.749Z,5.55
2019-02-03T09:18:48.450Z,5.55
2019-02-03T09:19:57.913Z,6.85
2019-02-03T09:21:03.860Z,5.40
2019-02-03T09:22:10.546Z,6.37
2019-02-03T09:23:17.285Z,5.67
2019-02-03T09:24:24.344Z,5.75
2019-02-03T09:25:31.312Z,5.80
2019-02-03T09:26:38.399Z,6.70
2019-02-03T09:27:45.455Z,6.95
2019-02-03T09:28:52.230Z,4.85
2019-02-03T09:29:59.311Z,5.17
2019-02-03T09:31:06.578Z,6.05
2019-02-03T09:32:13.696Z,5.40
2019-02-03T09:33:20.439Z,5.08
2019-02-03T09:34:27.143Z,5.83
2019-02-03T09:35:33.949Z,5.30
2019-02-03T09:36:40.615Z,6.05
2019-02-03T09:37:47.817Z,6.25
2019-02-03T09:38:55.002Z,5.15
2019-02-03T09:40:02.085Z,5.85
2019-02-03T09:41:08.868Z,4.40
2019-02-03T09:42:16.128Z,5.25
2019-02-03T09:43:23.103Z,5.97
2019-02-03T09:44:30.182Z,4.25
2019-02-03T09:45:36.863Z,5.75
2019-02-03T09:46:43.716Z,5.40
2019-02-03T09:47:50.814Z,4.58
2019-02-03T09:48:57.466Z,5.35
2019-02-03T09:50:04.940Z,5.20
2019-02-03T09:51:11.686Z,6.30
2019-02-03T09:52:18.415Z,5.10
2019-02-03T09:53:25.128Z,4.37
2019-02-03T09:54:32.453Z,4.17
2019-02-03T09:55:39.195Z,4.25
2019-02-03T09:56:46.092Z,4.45
2019-02-03T09:57:53.111Z,4.50
2019-02-03T09:59:00.492Z,4.62
2019-02-03T10:00:12.407Z,4.45
2019-02-03T10:01:19.349Z,3.45
2019-02-03T10:02:26.359Z,3.95
2019-02-03T10:03:33.564Z,4.22
2019-02-03T10:04:40.355Z,4.45
2019-02-03T10:05:47.129Z,4.83
2019-02-03T10:06:54.199Z,3.47
2019-02-03T10:08:01.232Z,4.62
2019-02-03T10:09:09.898Z,3.80
2019-02-03T10:10:22.818Z,4.30
2019-02-03T10:11:29.537Z,3.65
2019-02-03T10:12:36.210Z,3.90
2019-02-03T10:13:43.188Z,3.80
2019-02-03T10:14:49.915Z,3.58
2019-02-03T10:15:56.946Z,3.70
2019-02-03T10:17:03.946Z,3.63
2019-02-03T10:18:12.167Z,4.17
2019-02-03T10:19:18.898Z,4.30
2019-02-03T10:20:26.009Z,4.10
2019-02-03T10:21:32.765Z,3.95
2019-02-03T10:22:39.754Z,4.60
2019-02-03T10:23:46.882Z,4.57
2019-02-03T10:24:53.766Z,5.75
2019-02-03T10:26:00.447Z,3.63
2019-02-03T10:27:07.383Z,3.87
2019-02-03T10:28:14.042Z,3.85
2019-02-03T10:29:20.802Z,3.83
2019-02-03T10:30:28.372Z,3.80
2019-02-03T10:31:35.024Z,3.33
2019-02-03T10:32:41.669Z,4.12
2019-02-03T10:33:48.349Z,3.70
2019-02-03T10:34:55.017Z,3.87
2019-02-03T10:36:01.778Z,3.20
2019-02-03T10:37:08.427Z,3.20
2019-02-03T10:38:15.152Z,3.22
2019-02-03T10:39:22.338Z,3.10
2019-02-03T10:40:31.987Z,3.62
2019-02-03T10:41:38.649Z,3.40
2019-02-03T10:42:45.338Z,3.20
2019-02-03T10:43:52.437Z,3.20
2019-02-03T10:44:59.123Z,3.80
2019-02-03T10:46:06.026Z,3.37
2019-02-03T10:47:13.120Z,3.70
2019-02-03T10:48:19.841Z,3.57
2019-02-03T10:49:26.828Z,3.20
2019-02-03T10:50:36.267Z,3.63
2019-02-03T10:51:43.269Z,3.58
2019-02-03T10:52:50.888Z,3.60
2019-02-03T10:53:57.822Z,3.60
2019-02-03T10:55:05.374Z,3.73
2019-02-03T10:56:12.724Z,3.85
2019-02-03T10:57:19.658Z,3.12
2019-02-03T10:58:26.342Z,3.90
2019-02-03T10:59:33.341Z,3.25
2019-02-03T11:00:41.279Z,4.03
2019-02-03T11:01:48.162Z,3.90
2019-02-03T11:02:54.835Z,3.25
2019-02-03T11:04:01.614Z,3.62
2019-02-03T11:05:16.633Z,3.05
2019-02-03T11:06:23.297Z,3.30
2019-02-03T11:07:30.058Z,3.50
2019-02-03T11:08:37.060Z,3.57
2019-02-03T11:09:43.750Z,3.52
2019-02-03T11:10:50.578Z,3.12
2019-02-03T11:11:57.292Z,2.87
2019-02-03T11:13:03.972Z,3.42
2019-02-03T11:14:11.200Z,3.07
2019-02-03T11:15:18.594Z,3.00
2019-02-03T11:16:25.366Z,3.83
2019-02-03T11:17:32.762Z,3.72
2019-02-03T11:18:39.505Z,3.20
2019-02-03T11:19:46.174Z,3.42
2019-02-03T11:20:53.244Z,3.00
2019-02-03T11:21:59.897Z,3.43
2019-02-03T11:23:06.939Z,3.40
2019-02-03T11:24:13.971Z,3.30
2019-02-03T11:25:21.768Z,3.80
2019-02-03T11:26:28.517Z,3.27
2019-02-03T11:27:35.475Z,2.97
2019-02-03T11:28:42.329Z,3.40
2019-02-03T11:29:48.991Z,3.20
2019-02-03T11:30:55.677Z,2.73
2019-02-03T11:32:02.329Z,3.40
2019-02-03T11:33:10.174Z,3.40
2019-02-03T11:34:17.303Z,3.22
2019-02-03T11:35:25.453Z,4.17
2019-02-03T11:36:32.836Z,3.30
2019-02-03T11:37:39.903Z,3.45
2019-02-03T11:38:47.311Z,3.20
2019-02-03T11:39:54.381Z,3.42
2019-02-03T11:41:01.607Z,3.42
2019-02-03T11:42:08.253Z,3.30
2019-02-03T11:43:14.951Z,3.70
2019-02-03T11:44:21.980Z,2.50
2019-02-03T11:45:35.632Z,3.52
2019-02-03T11:46:42.322Z,3.45
2019-02-03T11:47:49.074Z,3.40
2019-02-03T11:48:56.022Z,3.13
2019-02-03T11:50:02.769Z,3.40
2019-02-03T11:51:09.769Z,3.47
2019-02-03T11:52:16.464Z,3.50
2019-02-03T11:53:27.778Z,2.50
2019-02-03T11:54:34.921Z,2.50
2019-02-03T11:55:41.629Z,3.50
2019-02-03T11:56:49.246Z,2.58
2019-02-03T11:57:56.111Z,2.53
2019-02-03T11:59:02.987Z,3.10
2019-02-03T12:00:16.876Z,3.17
2019-02-03T12:01:23.589Z,3.00
2019-02-03T12:02:41.498Z,3.40
2019-02-03T12:03:38.863Z,3.07
2019-02-03T12:04:45.958Z,3.50
2019-02-03T12:05:52.627Z,3.90
2019-02-03T12:06:59.584Z,3.10
2019-02-03T12:08:06.933Z,3.30
2019-02-03T12:09:13.807Z,3.40
2019-02-03T12:10:24.737Z,3.63
2019-02-03T12:11:31.721Z,3.20
2019-02-03T12:12:38.695Z,2.80
2019-02-03T12:13:45.934Z,3.20
2019-02-03T12:14:53.181Z,2.40
2019-02-03T12:15:59.873Z,2.98
2019-02-03T12:17:06.797Z,3.00
2019-02-03T12:18:13.477Z,2.83
2019-02-03T12:19:20.160Z,2.60
2019-02-03T12:20:26.985Z,2.40
2019-02-03T12:21:33.686Z,3.20
2019-02-03T12:22:40.366Z,2.60
2019-02-03T12:23:47.069Z,2.37
2019-02-03T12:24:54.097Z,2.77
2019-02-03T12:26:00.801Z,2.53
2019-02-03T12:27:07.564Z,2.80
2019-02-03T12:28:14.442Z,2.63
2019-02-03T12:29:21.226Z,2.80
2019-02-03T12:30:32.999Z,3.37
2019-02-03T12:31:39.816Z,2.70
2019-02-03T12:32:46.470Z,3.13
2019-02-03T12:33:53.523Z,2.77
2019-02-03T12:35:00.533Z,2.43
2019-02-03T12:36:07.204Z,2.92
2019-02-03T12:37:13.899Z,3.33
2019-02-03T12:38:20.586Z,2.43
2019-02-03T12:39:27.956Z,2.30
2019-02-03T12:40:35.096Z,2.52
2019-02-03T12:41:42.066Z,2.60
2019-02-03T12:42:49.257Z,2.50
2019-02-03T12:43:56.358Z,3.17
2019-02-03T12:45:03.065Z,2.77
2019-02-03T12:46:09.748Z,3.00
2019-02-03T12:47:19.180Z,2.50
2019-02-03T12:48:25.491Z,2.93
2019-02-03T12:49:32.474Z,2.33
2019-02-03T12:50:39.997Z,2.60
2019-02-03T12:51:47.154Z,2.43
2019-02-03T12:52:54.192Z,2.63
2019-02-03T12:54:00.911Z,1.90
2019-02-03T12:55:09.800Z,2.67
2019-02-03T12:56:17.056Z,1.90
2019-02-03T12:57:24.494Z,2.07
2019-02-03T12:58:31.293Z,2.40
2019-02-03T12:59:38.363Z,2.30
2019-02-03T13:00:45.448Z,2.30
2019-02-03T13:01:52.387Z,2.83
2019-02-03T13:02:59.059Z,2.30
2019-02-03T13:04:06.359Z,3.00
2019-02-03T13:05:14.408Z,2.80
2019-02-03T13:06:21.044Z,2.43
2019-02-03T13:07:28.116Z,2.53
2019-02-03T13:08:34.771Z,1.90
2019-02-03T13:09:41.736Z,1.90
2019-02-03T13:10:48.456Z,1.93
2019-02-03T13:11:55.721Z,2.07
2019-02-03T13:13:02.433Z,1.82
2019-02-03T13:14:09.414Z,2.27
2019-02-03T13:15:29.508Z,1.90
2019-02-03T13:16:36.494Z,2.13
2019-02-03T13:17:43.583Z,2.27
2019-02-03T13:18:50.683Z,2.23
2019-02-03T13:19:57.391Z,2.10
2019-02-03T13:21:04.268Z,2.10
2019-02-03T13:22:10.976Z,1.67
2019-02-03T13:23:18.543Z,2.00
2019-02-03T13:24:28.250Z,3.97
2019-02-03T13:25:35.292Z,2.70
2019-02-03T13:26:42.052Z,2.77
2019-02-03T13:27:49.888Z,1.70
2019-02-03T13:28:56.616Z,1.60
2019-02-03T13:30:03.356Z,1.80
2019-02-03T13:31:10.548Z,2.00
2019-02-03T13:32:17.528Z,1.90
2019-02-03T13:33:24.246Z,1.77
2019-02-03T13:34:30.917Z,1.70
2019-02-03T13:35:37.956Z,1.77
2019-02-03T13:36:44.669Z,1.90
2019-02-03T13:37:51.700Z,1.37
2019-02-03T13:38:58.367Z,1.70
2019-02-03T13:40:05.992Z,1.95
2019-02-03T13:41:13.351Z,1.80
2019-02-03T13:42:20.404Z,1.83
2019-02-03T13:43:27.094Z,1.57
2019-02-03T13:44:33.772Z,2.43
2019-02-03T13:45:40.685Z,1.30
2019-02-03T13:46:47.674Z,1.70
2019-02-03T13:47:55.937Z,1.93
2019-02-03T13:49:03.007Z,1.50
2019-02-03T13:50:13.100Z,1.63
2019-02-03T13:51:19.970Z,1.33
2019-02-03T13:52:26.611Z,1.57
2019-02-03T13:53:33.694Z,1.93
2019-02-03T13:54:40.999Z,1.40
2019-02-03T13:55:48.110Z,2.10
2019-02-03T13:56:54.927Z,1.67
2019-02-03T13:58:01.740Z,2.12
2019-02-03T13:59:09.442Z,1.97
2019-02-03T14:00:23.811Z,1.60
2019-02-03T14:01:30.853Z,2.00
2019-02-03T14:02:37.741Z,2.10
2019-02-03T14:03:45.056Z,1.67
2019-02-03T14:04:51.761Z,1.90
2019-02-03T14:05:58.851Z,2.47
2019-02-03T14:07:05.829Z,2.17
2019-02-03T14:08:24.806Z,2.08
2019-02-03T14:09:31.792Z,2.03
2019-02-03T14:10:38.763Z,2.17
2019-02-03T14:11:45.895Z,1.97
2019-02-03T14:12:55.004Z,1.40
2019-02-03T14:14:02.665Z,1.60
2019-02-03T14:15:10.493Z,2.50
2019-02-03T14:16:17.222Z,2.10
2019-02-03T14:17:24.314Z,1.70
2019-02-03T14:18:31.116Z,1.60
2019-02-03T14:19:38.147Z,1.70
2019-02-03T14:20:45.503Z,2.33
2019-02-03T14:21:52.637Z,2.17
2019-02-03T14:23:00.643Z,2.20
2019-02-03T14:24:07.883Z,4.33
2019-02-03T14:25:16.980Z,4.10
2019-02-03T14:26:25.201Z,5.60
2019-02-03T14:27:32.464Z,3.37
2019-02-03T14:28:41.056Z,4.08
2019-02-03T14:29:47.796Z,4.50
2019-02-03T14:30:54.459Z,3.80
2019-02-03T14:32:01.103Z,3.70
2019-02-03T14:33:08.033Z,4.53
2019-02-03T14:34:14.694Z,5.73
2019-02-03T14:35:21.562Z,3.15
2019-02-03T14:36:28.534Z,2.10
2019-02-03T14:37:35.498Z,2.43
2019-02-03T14:38:42.539Z,2.00